sensor_id;sensor_type;location;lat;lon;timestamp;P1;durP1;ratioP1;P2;durP2;ratioP2
38911;SDS011;28444;48.056;14.408;2023-02-22T00:01:32;7.35;;;4.65;;
38911;SDS011;28444;48.056;14.408;2023-02-22T00:04:16;9.82;;;4.82;;
38911;SDS011;28444;48.056;14.408;2023-02-22T00:06:46;7.28;;;4.32;;
38911;SDS011;28444;48.056;14.408;2023-02-22T00:09:14;7.13;;;5.22;;
38911;SDS011;28444;48.056;14.408;2023-02-22T00:11:46;11.88;;;5.30;;
38911;SDS011;28444;48.056;14.408;2023-02-22T00:14:14;8.13;;;4.72;;
38911;SDS011;28444;48.056;14.408;2023-02-22T00:16:45;7.00;;;4.35;;
38911;SDS011;28444;48.056;14.408;2023-02-22T00:19:12;12.77;;;5.38;;
38911;SDS011;28444;48.056;14.408;2023-02-22T00:21:38;14.68;;;5.10;;
38911;SDS011;28444;48.056;14.408;2023-02-22T00:24:05;10.27;;;4.57;;
38911;SDS011;28444;48.056;14.408;2023-02-22T00:26:51;10.63;;;4.93;;
38911;SDS011;28444;48.056;14.408;2023-02-22T00:29:22;6.25;;;3.97;;
38911;SDS011;28444;48.056;14.408;2023-02-22T00:31:49;11.13;;;4.80;;
38911;SDS011;28444;48.056;14.408;2023-02-22T00:34:16;9.13;;;5.13;;
38911;SDS011;28444;48.056;14.408;2023-02-22T00:36:48;12.02;;;5.18;;
38911;SDS011;28444;48.056;14.408;2023-02-22T00:39:16;8.38;;;3.97;;
38911;SDS011;28444;48.056;14.408;2023-02-22T00:41:43;13.07;;;6.57;;
38911;SDS011;28444;48.056;14.408;2023-02-22T00:44:10;11.38;;;4.18;;
38911;SDS011;28444;48.056;14.408;2023-02-22T00:46:37;5.88;;;3.67;;
38911;SDS011;28444;48.056;14.408;2023-02-22T00:49:03;9.68;;;4.68;;
38911;SDS011;28444;48.056;14.408;2023-02-22T00:51:30;11.45;;;3.90;;
38911;SDS011;28444;48.056;14.408;2023-02-22T00:53:59;6.47;;;3.35;;
38911;SDS011;28444;48.056;14.408;2023-02-22T00:56:25;6.45;;;3.72;;
38911;SDS011;28444;48.056;14.408;2023-02-22T00:58:52;8.07;;;3.58;;
38911;SDS011;28444;48.056;14.408;2023-02-22T01:01:19;10.02;;;4.03;;
38911;SDS011;28444;48.056;14.408;2023-02-22T01:03:46;10.40;;;4.35;;
38911;SDS011;28444;48.056;14.408;2023-02-22T01:06:12;4.55;;;3.63;;
38911;SDS011;28444;48.056;14.408;2023-02-22T01:08:42;5.57;;;3.10;;
38911;SDS011;28444;48.056;14.408;2023-02-22T01:11:10;6.55;;;3.42;;
38911;SDS011;28444;48.056;14.408;2023-02-22T01:13:37;6.28;;;3.15;;
38911;SDS011;28444;48.056;14.408;2023-02-22T01:16:04;11.10;;;3.78;;
38911;SDS011;28444;48.056;14.408;2023-02-22T01:18:34;5.40;;;3.97;;
38911;SDS011;28444;48.056;14.408;2023-02-22T01:21:04;5.53;;;3.47;;
38911;SDS011;28444;48.056;14.408;2023-02-22T01:23:32;7.15;;;4.00;;
38911;SDS011;28444;48.056;14.408;2023-02-22T01:25:58;8.45;;;3.35;;
38911;SDS011;28444;48.056;14.408;2023-02-22T01:28:25;5.65;;;3.72;;
38911;SDS011;28444;48.056;14.408;2023-02-22T01:30:52;11.13;;;4.20;;
38911;SDS011;28444;48.056;14.408;2023-02-22T01:33:21;4.85;;;3.47;;
38911;SDS011;28444;48.056;14.408;2023-02-22T01:35:48;6.78;;;3.30;;
38911;SDS011;28444;48.056;14.408;2023-02-22T01:38:16;5.15;;;3.55;;
38911;SDS011;28444;48.056;14.408;2023-02-22T01:40:46;4.68;;;2.88;;
38911;SDS011;28444;48.056;14.408;2023-02-22T01:43:24;5.07;;;3.40;;
38911;SDS011;28444;48.056;14.408;2023-02-22T01:45:57;7.72;;;2.90;;
38911;SDS011;28444;48.056;14.408;2023-02-22T01:48:29;5.07;;;2.40;;
38911;SDS011;28444;48.056;14.408;2023-02-22T01:51:25;5.60;;;3.28;;
38911;SDS011;28444;48.056;14.408;2023-02-22T01:53:57;4.25;;;2.67;;
38911;SDS011;28444;48.056;14.408;2023-02-22T01:56:28;12.32;;;2.70;;
38911;SDS011;28444;48.056;14.408;2023-02-22T01:58:58;5.72;;;2.95;;
38911;SDS011;28444;48.056;14.408;2023-02-22T02:01:28;5.78;;;3.08;;
38911;SDS011;28444;48.056;14.408;2023-02-22T02:03:56;5.18;;;3.05;;
38911;SDS011;28444;48.056;14.408;2023-02-22T02:06:25;10.32;;;3.63;;
38911;SDS011;28444;48.056;14.408;2023-02-22T02:09:07;4.38;;;3.05;;
38911;SDS011;28444;48.056;14.408;2023-02-22T02:11:39;6.65;;;3.53;;
38911;SDS011;28444;48.056;14.408;2023-02-22T02:14:08;5.80;;;3.92;;
38911;SDS011;28444;48.056;14.408;2023-02-22T02:16:38;9.02;;;3.22;;
38911;SDS011;28444;48.056;14.408;2023-02-22T02:19:09;11.55;;;3.58;;
38911;SDS011;28444;48.056;14.408;2023-02-22T02:22:19;8.35;;;4.18;;
38911;SDS011;28444;48.056;14.408;2023-02-22T02:25:14;6.60;;;3.53;;
38911;SDS011;28444;48.056;14.408;2023-02-22T02:28:00;15.63;;;3.90;;
38911;SDS011;28444;48.056;14.408;2023-02-22T02:37:12;1447.95;;;751.13;;
38911;SDS011;28444;48.056;14.408;2023-02-22T02:40:21;776.33;;;462.88;;
38911;SDS011;28444;48.056;14.408;2023-02-22T02:44:20;636.50;;;398.38;;
38911;SDS011;28444;48.056;14.408;2023-02-22T02:46:20;520.25;;;313.88;;
38911;SDS011;28444;48.056;14.408;2023-02-22T02:48:53;564.60;;;374.52;;
38911;SDS011;28444;48.056;14.408;2023-02-22T02:51:26;439.08;;;266.88;;
38911;SDS011;28444;48.056;14.408;2023-02-22T02:53:57;326.70;;;188.20;;
38911;SDS011;28444;48.056;14.408;2023-02-22T02:56:26;364.60;;;209.13;;
38911;SDS011;28444;48.056;14.408;2023-02-22T02:58:53;266.55;;;145.02;;
38911;SDS011;28444;48.056;14.408;2023-02-22T03:04:08;111.23;;;50.30;;
38911;SDS011;28444;48.056;14.408;2023-02-22T03:07:17;138.70;;;71.40;;
38911;SDS011;28444;48.056;14.408;2023-02-22T03:13:39;70.22;;;40.58;;
38911;SDS011;28444;48.056;14.408;2023-02-22T03:16:25;204.10;;;100.65;;
38911;SDS011;28444;48.056;14.408;2023-02-22T03:22:13;192.30;;;96.68;;
38911;SDS011;28444;48.056;14.408;2023-02-22T03:24:50;67.97;;;37.55;;
38911;SDS011;28444;48.056;14.408;2023-02-22T03:27:28;40.97;;;21.35;;
38911;SDS011;28444;48.056;14.408;2023-02-22T03:30:02;30.63;;;17.80;;
38911;SDS011;28444;48.056;14.408;2023-02-22T03:32:36;18.42;;;10.35;;
38911;SDS011;28444;48.056;14.408;2023-02-22T03:37:45;16.58;;;6.40;;
38911;SDS011;28444;48.056;14.408;2023-02-22T03:40:16;12.57;;;6.30;;
38911;SDS011;28444;48.056;14.408;2023-02-22T03:42:52;9.52;;;4.97;;
38911;SDS011;28444;48.056;14.408;2023-02-22T03:45:24;8.27;;;3.83;;
38911;SDS011;28444;48.056;14.408;2023-02-22T03:47:59;10.05;;;3.70;;
38911;SDS011;28444;48.056;14.408;2023-02-22T03:50:33;10.40;;;4.43;;
38911;SDS011;28444;48.056;14.408;2023-02-22T03:53:02;10.50;;;4.93;;
38911;SDS011;28444;48.056;14.408;2023-02-22T03:55:29;8.10;;;4.15;;
38911;SDS011;28444;48.056;14.408;2023-02-22T03:57:57;13.00;;;4.65;;
38911;SDS011;28444;48.056;14.408;2023-02-22T04:00:27;12.90;;;4.75;;
38911;SDS011;28444;48.056;14.408;2023-02-22T04:02:56;14.30;;;8.18;;
38911;SDS011;28444;48.056;14.408;2023-02-22T04:05:23;15.98;;;8.27;;
38911;SDS011;28444;48.056;14.408;2023-02-22T04:07:54;15.55;;;8.75;;
38911;SDS011;28444;48.056;14.408;2023-02-22T04:10:22;24.33;;;8.20;;
38911;SDS011;28444;48.056;14.408;2023-02-22T04:12:50;13.13;;;6.85;;
38911;SDS011;28444;48.056;14.408;2023-02-22T04:15:21;17.27;;;9.70;;
38911;SDS011;28444;48.056;14.408;2023-02-22T04:17:49;10.75;;;6.32;;
38911;SDS011;28444;48.056;14.408;2023-02-22T04:20:17;13.30;;;6.35;;
38911;SDS011;28444;48.056;14.408;2023-02-22T04:22:45;10.85;;;5.80;;
38911;SDS011;28444;48.056;14.408;2023-02-22T04:25:12;16.90;;;5.30;;
38911;SDS011;28444;48.056;14.408;2023-02-22T04:27:39;8.35;;;4.60;;
38911;SDS011;28444;48.056;14.408;2023-02-22T04:30:06;8.48;;;4.55;;
38911;SDS011;28444;48.056;14.408;2023-02-22T04:32:34;7.80;;;3.78;;
38911;SDS011;28444;48.056;14.408;2023-02-22T04:35:01;5.93;;;4.30;;
38911;SDS011;28444;48.056;14.408;2023-02-22T04:37:27;17.42;;;3.85;;
38911;SDS011;28444;48.056;14.408;2023-02-22T04:39:54;11.70;;;4.25;;
38911;SDS011;28444;48.056;14.408;2023-02-22T04:42:21;7.60;;;3.50;;
38911;SDS011;28444;48.056;14.408;2023-02-22T04:44:48;5.63;;;3.25;;
38911;SDS011;28444;48.056;14.408;2023-02-22T04:47:14;5.80;;;3.78;;
38911;SDS011;28444;48.056;14.408;2023-02-22T04:49:41;6.97;;;3.70;;
38911;SDS011;28444;48.056;14.408;2023-02-22T04:52:08;6.38;;;3.90;;
38911;SDS011;28444;48.056;14.408;2023-02-22T04:54:35;6.55;;;3.60;;
38911;SDS011;28444;48.056;14.408;2023-02-22T04:57:01;8.45;;;3.95;;
38911;SDS011;28444;48.056;14.408;2023-02-22T04:59:28;8.45;;;4.40;;
38911;SDS011;28444;48.056;14.408;2023-02-22T05:01:55;6.80;;;4.55;;
38911;SDS011;28444;48.056;14.408;2023-02-22T05:04:21;5.75;;;4.03;;
38911;SDS011;28444;48.056;14.408;2023-02-22T05:06:48;14.32;;;4.90;;
38911;SDS011;28444;48.056;14.408;2023-02-22T05:09:15;8.60;;;3.17;;
38911;SDS011;28444;48.056;14.408;2023-02-22T05:11:41;11.30;;;3.65;;
38911;SDS011;28444;48.056;14.408;2023-02-22T05:14:08;7.40;;;3.42;;
38911;SDS011;28444;48.056;14.408;2023-02-22T05:16:35;6.30;;;2.92;;
38911;SDS011;28444;48.056;14.408;2023-02-22T05:19:02;3.78;;;2.78;;
38911;SDS011;28444;48.056;14.408;2023-02-22T05:21:29;5.00;;;3.13;;
38911;SDS011;28444;48.056;14.408;2023-02-22T05:23:56;5.53;;;3.42;;
38911;SDS011;28444;48.056;14.408;2023-02-22T05:26:22;4.57;;;3.22;;
38911;SDS011;28444;48.056;14.408;2023-02-22T05:28:49;5.35;;;2.75;;
38911;SDS011;28444;48.056;14.408;2023-02-22T05:31:16;5.65;;;3.28;;
38911;SDS011;28444;48.056;14.408;2023-02-22T05:33:43;4.93;;;3.20;;
38911;SDS011;28444;48.056;14.408;2023-02-22T05:36:10;5.22;;;2.95;;
38911;SDS011;28444;48.056;14.408;2023-02-22T05:38:36;8.27;;;3.53;;
38911;SDS011;28444;48.056;14.408;2023-02-22T05:41:10;11.27;;;4.47;;
38911;SDS011;28444;48.056;14.408;2023-02-22T05:43:38;6.63;;;4.10;;
38911;SDS011;28444;48.056;14.408;2023-02-22T05:46:06;10.82;;;4.88;;
38911;SDS011;28444;48.056;14.408;2023-02-22T05:48:33;8.30;;;4.28;;
38911;SDS011;28444;48.056;14.408;2023-02-22T05:50:59;8.30;;;4.20;;
38911;SDS011;28444;48.056;14.408;2023-02-22T05:53:26;11.60;;;4.45;;
38911;SDS011;28444;48.056;14.408;2023-02-22T05:55:53;9.55;;;4.70;;
38911;SDS011;28444;48.056;14.408;2023-02-22T05:58:20;6.53;;;3.90;;
38911;SDS011;28444;48.056;14.408;2023-02-22T06:00:47;8.00;;;4.75;;
38911;SDS011;28444;48.056;14.408;2023-02-22T06:03:14;7.53;;;4.50;;
38911;SDS011;28444;48.056;14.408;2023-02-22T06:05:40;9.48;;;3.47;;
38911;SDS011;28444;48.056;14.408;2023-02-22T06:08:07;9.40;;;4.68;;
38911;SDS011;28444;48.056;14.408;2023-02-22T06:10:35;10.45;;;4.25;;
38911;SDS011;28444;48.056;14.408;2023-02-22T06:13:02;13.73;;;5.57;;
38911;SDS011;28444;48.056;14.408;2023-02-22T06:15:30;9.38;;;4.70;;
38911;SDS011;28444;48.056;14.408;2023-02-22T06:17:57;8.80;;;4.53;;
38911;SDS011;28444;48.056;14.408;2023-02-22T06:20:26;11.73;;;4.82;;
38911;SDS011;28444;48.056;14.408;2023-02-22T06:22:54;7.07;;;4.22;;
38911;SDS011;28444;48.056;14.408;2023-02-22T06:25:24;8.98;;;4.55;;
38911;SDS011;28444;48.056;14.408;2023-02-22T06:27:52;11.43;;;4.93;;
38911;SDS011;28444;48.056;14.408;2023-02-22T06:30:20;7.43;;;3.70;;
38911;SDS011;28444;48.056;14.408;2023-02-22T06:32:48;6.25;;;3.30;;
38911;SDS011;28444;48.056;14.408;2023-02-22T06:35:15;6.20;;;3.60;;
38911;SDS011;28444;48.056;14.408;2023-02-22T06:37:43;5.50;;;3.42;;
38911;SDS011;28444;48.056;14.408;2023-02-22T06:40:10;6.50;;;3.78;;
38911;SDS011;28444;48.056;14.408;2023-02-22T06:42:37;7.50;;;3.80;;
38911;SDS011;28444;48.056;14.408;2023-02-22T06:45:04;6.32;;;3.15;;
38911;SDS011;28444;48.056;14.408;2023-02-22T06:47:32;6.47;;;4.40;;
38911;SDS011;28444;48.056;14.408;2023-02-22T06:49:59;7.68;;;3.33;;
38911;SDS011;28444;48.056;14.408;2023-02-22T06:52:26;9.27;;;4.18;;
38911;SDS011;28444;48.056;14.408;2023-02-22T06:54:52;5.13;;;3.63;;
38911;SDS011;28444;48.056;14.408;2023-02-22T06:57:19;6.35;;;4.38;;
38911;SDS011;28444;48.056;14.408;2023-02-22T06:59:46;8.50;;;4.05;;
38911;SDS011;28444;48.056;14.408;2023-02-22T07:02:13;13.43;;;5.15;;
38911;SDS011;28444;48.056;14.408;2023-02-22T07:04:40;8.63;;;4.38;;
38911;SDS011;28444;48.056;14.408;2023-02-22T07:07:08;7.75;;;4.30;;
38911;SDS011;28444;48.056;14.408;2023-02-22T07:09:35;13.90;;;4.32;;
38911;SDS011;28444;48.056;14.408;2023-02-22T07:12:02;10.02;;;3.92;;
38911;SDS011;28444;48.056;14.408;2023-02-22T07:14:29;7.38;;;3.97;;
38911;SDS011;28444;48.056;14.408;2023-02-22T07:16:55;6.50;;;3.83;;
38911;SDS011;28444;48.056;14.408;2023-02-22T07:19:22;6.40;;;3.40;;
38911;SDS011;28444;48.056;14.408;2023-02-22T07:21:49;5.65;;;2.97;;
38911;SDS011;28444;48.056;14.408;2023-02-22T07:24:20;4.97;;;2.80;;
38911;SDS011;28444;48.056;14.408;2023-02-22T07:26:47;12.35;;;4.53;;
38911;SDS011;28444;48.056;14.408;2023-02-22T07:29:14;9.88;;;3.10;;
38911;SDS011;28444;48.056;14.408;2023-02-22T07:31:41;8.85;;;3.30;;
38911;SDS011;28444;48.056;14.408;2023-02-22T07:34:08;11.43;;;4.10;;
38911;SDS011;28444;48.056;14.408;2023-02-22T07:36:34;6.82;;;3.70;;
38911;SDS011;28444;48.056;14.408;2023-02-22T07:39:01;6.00;;;3.72;;
38911;SDS011;28444;48.056;14.408;2023-02-22T07:41:28;4.63;;;2.90;;
38911;SDS011;28444;48.056;14.408;2023-02-22T07:43:54;9.40;;;4.45;;
38911;SDS011;28444;48.056;14.408;2023-02-22T07:46:21;29.38;;;10.50;;
38911;SDS011;28444;48.056;14.408;2023-02-22T07:48:48;18.52;;;9.10;;
38911;SDS011;28444;48.056;14.408;2023-02-22T07:51:15;8.45;;;5.95;;
38911;SDS011;28444;48.056;14.408;2023-02-22T07:53:43;9.00;;;5.18;;
38911;SDS011;28444;48.056;14.408;2023-02-22T07:56:10;8.52;;;4.20;;
38911;SDS011;28444;48.056;14.408;2023-02-22T07:58:37;7.35;;;4.57;;
38911;SDS011;28444;48.056;14.408;2023-02-22T08:01:03;11.82;;;4.78;;
38911;SDS011;28444;48.056;14.408;2023-02-22T08:03:31;6.90;;;4.00;;
38911;SDS011;28444;48.056;14.408;2023-02-22T08:06:02;8.63;;;4.28;;
38911;SDS011;28444;48.056;14.408;2023-02-22T08:08:30;8.73;;;5.25;;
38911;SDS011;28444;48.056;14.408;2023-02-22T08:10:57;9.48;;;5.78;;
38911;SDS011;28444;48.056;14.408;2023-02-22T08:13:24;11.98;;;5.28;;
38911;SDS011;28444;48.056;14.408;2023-02-22T08:15:51;10.13;;;6.45;;
38911;SDS011;28444;48.056;14.408;2023-02-22T08:18:20;16.25;;;7.80;;
38911;SDS011;28444;48.056;14.408;2023-02-22T08:20:48;16.35;;;9.23;;
38911;SDS011;28444;48.056;14.408;2023-02-22T08:23:17;13.35;;;8.68;;
38911;SDS011;28444;48.056;14.408;2023-02-22T08:25:45;15.73;;;8.95;;
38911;SDS011;28444;48.056;14.408;2023-02-22T08:28:13;15.63;;;8.18;;
38911;SDS011;28444;48.056;14.408;2023-02-22T08:30:41;12.68;;;7.65;;
38911;SDS011;28444;48.056;14.408;2023-02-22T08:33:09;11.65;;;8.80;;
38911;SDS011;28444;48.056;14.408;2023-02-22T08:35:40;19.70;;;7.65;;
38911;SDS011;28444;48.056;14.408;2023-02-22T08:38:07;10.18;;;7.88;;
38911;SDS011;28444;48.056;14.408;2023-02-22T08:40:40;12.60;;;7.40;;
38911;SDS011;28444;48.056;14.408;2023-02-22T08:43:07;14.45;;;7.40;;
38911;SDS011;28444;48.056;14.408;2023-02-22T08:45:33;11.60;;;7.63;;
38911;SDS011;28444;48.056;14.408;2023-02-22T08:48:00;16.52;;;8.43;;
38911;SDS011;28444;48.056;14.408;2023-02-22T08:50:28;9.73;;;6.82;;
38911;SDS011;28444;48.056;14.408;2023-02-22T08:52:59;14.98;;;7.30;;
38911;SDS011;28444;48.056;14.408;2023-02-22T08:55:31;6.80;;;5.43;;
38911;SDS011;28444;48.056;14.408;2023-02-22T08:58:00;8.48;;;5.60;;
38911;SDS011;28444;48.056;14.408;2023-02-22T09:00:29;8.85;;;5.88;;
38911;SDS011;28444;48.056;14.408;2023-02-22T09:03:01;8.88;;;5.47;;
38911;SDS011;28444;48.056;14.408;2023-02-22T09:05:29;11.80;;;6.07;;
38911;SDS011;28444;48.056;14.408;2023-02-22T09:07:57;12.63;;;5.00;;
38911;SDS011;28444;48.056;14.408;2023-02-22T09:10:25;8.88;;;6.18;;
38911;SDS011;28444;48.056;14.408;2023-02-22T09:12:53;9.13;;;5.28;;
38911;SDS011;28444;48.056;14.408;2023-02-22T09:15:21;7.95;;;5.05;;
38911;SDS011;28444;48.056;14.408;2023-02-22T09:17:48;10.65;;;5.03;;
38911;SDS011;28444;48.056;14.408;2023-02-22T09:20:16;6.72;;;4.82;;
38911;SDS011;28444;48.056;14.408;2023-02-22T09:22:44;14.05;;;5.35;;
38911;SDS011;28444;48.056;14.408;2023-02-22T09:25:12;10.77;;;5.07;;
38911;SDS011;28444;48.056;14.408;2023-02-22T09:27:42;7.63;;;5.28;;
38911;SDS011;28444;48.056;14.408;2023-02-22T09:30:17;12.55;;;5.43;;
38911;SDS011;28444;48.056;14.408;2023-02-22T09:33:09;12.32;;;5.70;;
38911;SDS011;28444;48.056;14.408;2023-02-22T09:35:39;15.50;;;6.13;;
38911;SDS011;28444;48.056;14.408;2023-02-22T09:38:14;10.70;;;5.60;;
38911;SDS011;28444;48.056;14.408;2023-02-22T09:40:46;12.43;;;4.72;;
38911;SDS011;28444;48.056;14.408;2023-02-22T09:46:40;6.35;;;5.03;;
38911;SDS011;28444;48.056;14.408;2023-02-22T09:49:19;7.20;;;4.68;;
38911;SDS011;28444;48.056;14.408;2023-02-22T09:52:15;10.15;;;5.18;;
38911;SDS011;28444;48.056;14.408;2023-02-22T09:54:49;10.05;;;5.68;;
38911;SDS011;28444;48.056;14.408;2023-02-22T09:57:29;8.68;;;5.10;;
38911;SDS011;28444;48.056;14.408;2023-02-22T10:03:16;9.65;;;5.10;;
38911;SDS011;28444;48.056;14.408;2023-02-22T10:06:05;7.35;;;5.32;;
38911;SDS011;28444;48.056;14.408;2023-02-22T10:08:37;10.48;;;5.60;;
38911;SDS011;28444;48.056;14.408;2023-02-22T10:11:48;8.85;;;5.63;;
38911;SDS011;28444;48.056;14.408;2023-02-22T10:14:33;8.05;;;4.78;;
38911;SDS011;28444;48.056;14.408;2023-02-22T10:20:37;9.18;;;5.53;;
38911;SDS011;28444;48.056;14.408;2023-02-22T10:23:29;7.13;;;5.20;;
38911;SDS011;28444;48.056;14.408;2023-02-22T10:26:12;7.53;;;5.50;;
38911;SDS011;28444;48.056;14.408;2023-02-22T10:28:52;10.00;;;5.65;;
38911;SDS011;28444;48.056;14.408;2023-02-22T10:31:29;8.77;;;5.68;;
38911;SDS011;28444;48.056;14.408;2023-02-22T10:34:00;9.77;;;5.00;;
38911;SDS011;28444;48.056;14.408;2023-02-22T10:36:30;11.88;;;6.78;;
38911;SDS011;28444;48.056;14.408;2023-02-22T10:39:01;10.45;;;5.60;;
38911;SDS011;28444;48.056;14.408;2023-02-22T10:41:43;9.23;;;5.80;;
38911;SDS011;28444;48.056;14.408;2023-02-22T10:44:16;10.30;;;5.10;;
38911;SDS011;28444;48.056;14.408;2023-02-22T10:46:43;9.70;;;5.13;;
38911;SDS011;28444;48.056;14.408;2023-02-22T10:49:11;7.90;;;5.07;;
38911;SDS011;28444;48.056;14.408;2023-02-22T10:51:44;12.30;;;4.75;;
38911;SDS011;28444;48.056;14.408;2023-02-22T10:54:18;9.55;;;6.00;;
38911;SDS011;28444;48.056;14.408;2023-02-22T10:56:50;10.70;;;5.28;;
38911;SDS011;28444;48.056;14.408;2023-02-22T10:59:34;7.00;;;4.65;;
38911;SDS011;28444;48.056;14.408;2023-02-22T11:02:23;6.70;;;5.25;;
38911;SDS011;28444;48.056;14.408;2023-02-22T11:04:55;15.63;;;6.40;;
38911;SDS011;28444;48.056;14.408;2023-02-22T11:09:59;14.35;;;4.43;;
38911;SDS011;28444;48.056;14.408;2023-02-22T11:12:35;7.00;;;4.93;;
38911;SDS011;28444;48.056;14.408;2023-02-22T11:18:03;9.25;;;5.07;;
38911;SDS011;28444;48.056;14.408;2023-02-22T11:20:32;6.93;;;4.50;;
38911;SDS011;28444;48.056;14.408;2023-02-22T11:23:03;10.05;;;5.32;;
38911;SDS011;28444;48.056;14.408;2023-02-22T11:25:34;10.18;;;4.85;;
38911;SDS011;28444;48.056;14.408;2023-02-22T11:28:07;7.53;;;4.93;;
38911;SDS011;28444;48.056;14.408;2023-02-22T11:30:38;9.02;;;4.40;;
38911;SDS011;28444;48.056;14.408;2023-02-22T11:33:18;8.52;;;5.43;;
38911;SDS011;28444;48.056;14.408;2023-02-22T11:35:55;7.28;;;4.28;;
38911;SDS011;28444;48.056;14.408;2023-02-22T11:38:24;6.97;;;4.55;;
38911;SDS011;28444;48.056;14.408;2023-02-22T11:43:49;7.00;;;4.65;;
38911;SDS011;28444;48.056;14.408;2023-02-22T11:46:18;6.68;;;4.35;;
38911;SDS011;28444;48.056;14.408;2023-02-22T11:52:07;11.32;;;5.18;;
38911;SDS011;28444;48.056;14.408;2023-02-22T11:55:02;8.23;;;4.63;;
38911;SDS011;28444;48.056;14.408;2023-02-22T11:58:23;5.15;;;3.95;;
38911;SDS011;28444;48.056;14.408;2023-02-22T12:01:07;5.10;;;4.05;;
38911;SDS011;28444;48.056;14.408;2023-02-22T12:06:50;6.22;;;3.60;;
38911;SDS011;28444;48.056;14.408;2023-02-22T12:09:25;6.40;;;4.30;;
38911;SDS011;28444;48.056;14.408;2023-02-22T12:12:13;10.98;;;4.00;;
38911;SDS011;28444;48.056;14.408;2023-02-22T12:15:31;7.55;;;4.22;;
38911;SDS011;28444;48.056;14.408;2023-02-22T12:18:20;8.63;;;4.43;;
38911;SDS011;28444;48.056;14.408;2023-02-22T12:20:59;6.88;;;4.10;;
38911;SDS011;28444;48.056;14.408;2023-02-22T12:23:35;7.40;;;3.95;;
38911;SDS011;28444;48.056;14.408;2023-02-22T12:26:27;6.97;;;4.50;;
38911;SDS011;28444;48.056;14.408;2023-02-22T12:28:57;8.13;;;4.45;;
38911;SDS011;28444;48.056;14.408;2023-02-22T12:34:35;11.18;;;5.25;;
38911;SDS011;28444;48.056;14.408;2023-02-22T12:37:21;7.85;;;4.43;;
38911;SDS011;28444;48.056;14.408;2023-02-22T12:40:07;8.68;;;4.70;;
38911;SDS011;28444;48.056;14.408;2023-02-22T12:45:56;8.43;;;4.35;;
38911;SDS011;28444;48.056;14.408;2023-02-22T12:48:48;9.38;;;4.40;;
38911;SDS011;28444;48.056;14.408;2023-02-22T12:55:19;10.18;;;4.70;;
38911;SDS011;28444;48.056;14.408;2023-02-22T12:57:40;5.75;;;4.05;;
38911;SDS011;28444;48.056;14.408;2023-02-22T13:00:25;6.45;;;4.20;;
38911;SDS011;28444;48.056;14.408;2023-02-22T13:03:00;7.43;;;4.60;;
38911;SDS011;28444;48.056;14.408;2023-02-22T13:05:35;6.30;;;4.10;;
38911;SDS011;28444;48.056;14.408;2023-02-22T13:08:09;4.88;;;4.10;;
38911;SDS011;28444;48.056;14.408;2023-02-22T13:17:17;6.28;;;4.40;;
38911;SDS011;28444;48.056;14.408;2023-02-22T13:20:32;8.82;;;4.63;;
38911;SDS011;28444;48.056;14.408;2023-02-22T13:26:37;6.65;;;4.60;;
38911;SDS011;28444;48.056;14.408;2023-02-22T13:29:30;7.80;;;4.30;;
38911;SDS011;28444;48.056;14.408;2023-02-22T13:32:04;6.85;;;4.95;;
38911;SDS011;28444;48.056;14.408;2023-02-22T13:35:06;10.00;;;4.70;;
38911;SDS011;28444;48.056;14.408;2023-02-22T13:41:02;6.97;;;3.83;;
38911;SDS011;28444;48.056;14.408;2023-02-22T13:50:51;8.50;;;4.35;;
38911;SDS011;28444;48.056;14.408;2023-02-22T13:53:16;4.93;;;3.90;;
38911;SDS011;28444;48.056;14.408;2023-02-22T13:56:08;6.18;;;3.80;;
38911;SDS011;28444;48.056;14.408;2023-02-22T13:59:00;8.02;;;3.78;;
38911;SDS011;28444;48.056;14.408;2023-02-22T14:04:34;5.65;;;3.63;;
38911;SDS011;28444;48.056;14.408;2023-02-22T14:07:44;9.68;;;3.92;;
38911;SDS011;28444;48.056;14.408;2023-02-22T14:10:33;7.80;;;4.13;;
38911;SDS011;28444;48.056;14.408;2023-02-22T14:17:14;9.05;;;3.30;;
38911;SDS011;28444;48.056;14.408;2023-02-22T14:23:26;10.90;;;3.60;;
38911;SDS011;28444;48.056;14.408;2023-02-22T14:26:32;20.98;;;4.60;;
38911;SDS011;28444;48.056;14.408;2023-02-22T14:29:22;12.60;;;3.08;;
38911;SDS011;28444;48.056;14.408;2023-02-22T14:31:58;5.63;;;3.10;;
38911;SDS011;28444;48.056;14.408;2023-02-22T14:34:41;6.90;;;3.10;;
38911;SDS011;28444;48.056;14.408;2023-02-22T14:37:52;5.43;;;2.95;;
38911;SDS011;28444;48.056;14.408;2023-02-22T14:40:22;3.63;;;3.00;;
38911;SDS011;28444;48.056;14.408;2023-02-22T14:43:09;7.65;;;2.90;;
38911;SDS011;28444;48.056;14.408;2023-02-22T14:45:43;3.85;;;2.67;;
38911;SDS011;28444;48.056;14.408;2023-02-22T14:48:19;4.63;;;2.95;;
38911;SDS011;28444;48.056;14.408;2023-02-22T14:50:59;4.82;;;3.10;;
38911;SDS011;28444;48.056;14.408;2023-02-22T14:53:47;4.47;;;2.13;;
38911;SDS011;28444;48.056;14.408;2023-02-22T14:56:20;4.90;;;2.85;;
38911;SDS011;28444;48.056;14.408;2023-02-22T14:59:04;8.30;;;3.28;;
38911;SDS011;28444;48.056;14.408;2023-02-22T15:02:02;8.52;;;2.75;;
38911;SDS011;28444;48.056;14.408;2023-02-22T15:04:37;7.95;;;3.30;;
38911;SDS011;28444;48.056;14.408;2023-02-22T15:07:19;6.60;;;3.47;;
38911;SDS011;28444;48.056;14.408;2023-02-22T15:10:06;8.00;;;3.83;;
38911;SDS011;28444;48.056;14.408;2023-02-22T15:12:49;5.68;;;3.47;;
38911;SDS011;28444;48.056;14.408;2023-02-22T15:15:37;7.63;;;4.30;;
38911;SDS011;28444;48.056;14.408;2023-02-22T15:18:18;6.60;;;3.83;;
38911;SDS011;28444;48.056;14.408;2023-02-22T15:20:50;5.50;;;4.00;;
38911;SDS011;28444;48.056;14.408;2023-02-22T15:23:26;7.35;;;3.97;;
38911;SDS011;28444;48.056;14.408;2023-02-22T15:25:55;5.65;;;3.70;;
38911;SDS011;28444;48.056;14.408;2023-02-22T15:28:23;6.40;;;3.83;;
38911;SDS011;28444;48.056;14.408;2023-02-22T15:31:12;8.38;;;4.32;;
38911;SDS011;28444;48.056;14.408;2023-02-22T15:37:13;11.05;;;4.35;;
38911;SDS011;28444;48.056;14.408;2023-02-22T15:39:51;7.25;;;4.40;;
38911;SDS011;28444;48.056;14.408;2023-02-22T15:42:25;9.48;;;5.05;;
38911;SDS011;28444;48.056;14.408;2023-02-22T15:44:55;7.75;;;3.88;;
38911;SDS011;28444;48.056;14.408;2023-02-22T15:47:28;6.80;;;4.88;;
38911;SDS011;28444;48.056;14.408;2023-02-22T15:53:04;6.50;;;4.22;;
38911;SDS011;28444;48.056;14.408;2023-02-22T15:55:33;9.07;;;4.68;;
38911;SDS011;28444;48.056;14.408;2023-02-22T15:58:11;6.10;;;4.70;;
38911;SDS011;28444;48.056;14.408;2023-02-22T16:00:58;7.75;;;4.60;;
38911;SDS011;28444;48.056;14.408;2023-02-22T16:03:32;9.55;;;5.35;;
38911;SDS011;28444;48.056;14.408;2023-02-22T16:08:54;6.90;;;4.45;;
38911;SDS011;28444;48.056;14.408;2023-02-22T16:11:31;10.85;;;5.25;;
38911;SDS011;28444;48.056;14.408;2023-02-22T16:14:01;9.70;;;4.97;;
38911;SDS011;28444;48.056;14.408;2023-02-22T16:16:31;7.50;;;5.28;;
38911;SDS011;28444;48.056;14.408;2023-02-22T16:21:57;9.90;;;5.15;;
38911;SDS011;28444;48.056;14.408;2023-02-22T16:24:31;8.47;;;5.07;;
38911;SDS011;28444;48.056;14.408;2023-02-22T16:27:05;10.23;;;5.00;;
38911;SDS011;28444;48.056;14.408;2023-02-22T16:29:39;10.15;;;5.57;;
38911;SDS011;28444;48.056;14.408;2023-02-22T16:32:05;10.38;;;5.28;;
38911;SDS011;28444;48.056;14.408;2023-02-22T16:34:32;7.38;;;4.95;;
38911;SDS011;28444;48.056;14.408;2023-02-22T16:36:59;10.15;;;5.60;;
38911;SDS011;28444;48.056;14.408;2023-02-22T16:39:29;8.20;;;4.95;;
38911;SDS011;28444;48.056;14.408;2023-02-22T16:41:58;9.90;;;5.35;;